Time;durP1;ratioP1;P1;durP2;ratioP2;P2;SDS_P1;SDS_P2;PMS_P1;PMS_P2;Temp;Humidity;BMP_temperature;BMP_pressure;BME280_temperature;BME280_humidity;BME280_pressure;Samples;Min_cycle;Max_cycle;Signal;HPM_P1;HPM_P2
2023/01/01 00:01:41;;;;;;;19.50;17.50;;;18.60;1.00;;;;;;5052120;28;20250;-59
2023/01/01 00:04:11;;;;;;;19.23;15.97;;;18.60;1.00;;;;;;5052303;28;20192;-59
2023/01/01 00:06:36;;;;;;;20.83;17.80;;;18.70;1.00;;;;;;5052080;28;20446;-60
2023/01/01 00:11:47;;;;;;;14.17;11.90;;;18.60;1.00;;;;;;5052971;28;20652;-58
2023/01/01 00:14:12;;;;;;;11.37;10.27;;;18.60;1.00;;;;;;5050858;28;20443;-59
2023/01/01 00:16:38;;;;;;;12.80;11.40;;;18.60;1.00;;;;;;5033878;28;20184;-60
2023/01/01 00:19:04;;;;;;;11.07;9.30;;;18.50;1.00;;;;;;5052538;28;20200;-61
2023/01/01 00:21:29;;;;;;;10.33;9.23;;;18.60;1.00;;;;;;5049341;28;20200;-60
2023/01/01 00:23:55;;;;;;;9.70;8.17;;;18.60;1.00;;;;;;5051115;28;20188;-59
2023/01/01 00:26:21;;;;;;;8.90;8.10;;;18.60;1.00;;;;;;5055998;28;20570;-60
2023/01/01 00:28:47;;;;;;;7.33;6.60;;;18.60;1.00;;;;;;5050628;28;20215;-60
2023/01/01 00:31:21;;;;;;;6.87;5.40;;;18.60;1.00;;;;;;5051595;28;20670;-59
2023/01/01 00:33:52;;;;;;;6.07;5.30;;;18.50;1.00;;;;;;5049748;28;20211;-60
2023/01/01 00:36:19;;;;;;;6.60;5.57;;;18.60;1.00;;;;;;5051396;28;20421;-62
2023/01/01 00:38:45;;;;;;;6.70;4.80;;;18.60;1.00;;;;;;5052156;28;20424;-60
2023/01/01 00:41:13;;;;;;;5.60;4.53;;;18.60;1.00;;;;;;5050383;28;20424;-59
2023/01/01 00:43:39;;;;;;;5.63;4.70;;;18.60;1.00;;;;;;5052345;28;20442;-59
2023/01/01 00:46:06;;;;;;;6.00;5.40;;;18.60;1.00;;;;;;5051314;28;20474;-59
2023/01/01 00:48:32;;;;;;;6.90;5.90;;;18.60;1.00;;;;;;5060661;28;20482;-59
2023/01/01 00:50:58;;;;;;;4.90;4.40;;;18.60;1.00;;;;;;5050185;28;20453;-59
2023/01/01 00:53:24;;;;;;;5.77;5.20;;;18.60;1.00;;;;;;5050604;28;20934;-59
2023/01/01 00:55:50;;;;;;;6.27;5.67;;;18.60;1.00;;;;;;5050390;28;20450;-59
2023/01/01 00:58:17;;;;;;;7.03;5.37;;;18.60;1.00;;;;;;5057077;28;20200;-61
2023/01/01 01:00:44;;;;;;;5.80;4.80;;;18.60;1.00;;;;;;5050437;28;20442;-60
2023/01/01 01:03:26;;;;;;;5.27;4.73;;;18.50;1.00;;;;;;5048219;28;20504;-59
2023/01/01 01:05:56;;;;;;;7.57;5.57;;;18.40;1.00;;;;;;5049630;28;20429;-59
2023/01/01 01:08:22;;;;;;;7.47;6.77;;;18.30;1.00;;;;;;5050415;28;20987;-59
2023/01/01 01:10:48;;;;;;;8.87;6.93;;;18.30;1.00;;;;;;5056495;28;20448;-59
2023/01/01 01:13:13;;;;;;;5.30;4.47;;;18.40;1.00;;;;;;5048624;28;20641;-59
2023/01/01 01:15:39;;;;;;;4.60;3.90;;;18.40;1.00;;;;;;5048156;28;20200;-60
2023/01/01 01:18:04;;;;;;;4.87;4.30;;;18.40;1.00;;;;;;5045497;28;20199;-59
2023/01/01 01:20:30;;;;;;;10.13;9.03;;;18.50;1.00;;;;;;5050883;28;20200;-59
2023/01/01 01:22:55;;;;;;;7.63;6.60;;;18.50;1.00;;;;;;5050332;28;20181;-59
2023/01/01 01:25:21;;;;;;;7.03;6.07;;;18.40;1.00;;;;;;5049598;28;20196;-58
2023/01/01 01:27:47;;;;;;;6.00;4.30;;;18.40;1.00;;;;;;5049476;28;20192;-59
2023/01/01 01:30:12;;;;;;;4.93;4.47;;;18.40;1.00;;;;;;5048988;28;21083;-59
2023/01/01 01:32:38;;;;;;;5.33;4.70;;;18.50;1.00;;;;;;5052467;28;20220;-58
2023/01/01 01:35:04;;;;;;;5.30;4.60;;;18.40;1.00;;;;;;5045353;28;20200;-58
2023/01/01 01:37:30;;;;;;;4.40;3.67;;;18.30;1.00;;;;;;5049693;28;20243;-59
2023/01/01 01:39:55;;;;;;;5.50;4.20;;;18.40;1.00;;;;;;5046640;28;20450;-58
2023/01/01 01:42:21;;;;;;;4.83;3.87;;;18.40;1.00;;;;;;5046928;28;20200;-58
2023/01/01 01:44:53;;;;;;;4.27;3.60;;;18.30;1.00;;;;;;5048008;28;20196;-60
2023/01/01 01:47:36;;;;;;;4.50;4.10;;;18.30;1.00;;;;;;5050212;28;20196;-59
2023/01/01 01:50:13;;;;;;;4.63;4.13;;;18.30;1.00;;;;;;5055040;28;20542;-59
2023/01/01 01:52:45;;;;;;;4.13;3.80;;;18.30;1.00;;;;;;5050738;28;20474;-59
2023/01/01 01:55:12;;;;;;;5.10;3.90;;;18.40;1.00;;;;;;5049810;28;20443;-59
2023/01/01 01:57:39;;;;;;;11.10;4.13;;;18.40;1.00;;;;;;5049026;28;20500;-60
2023/01/01 02:00:06;;;;;;;4.57;3.80;;;18.30;1.00;;;;;;5048873;28;21012;-59
2023/01/01 02:02:38;;;;;;;3.93;3.53;;;18.30;1.00;;;;;;5049114;28;20796;-59
2023/01/01 02:05:05;;;;;;;4.30;2.80;;;18.30;1.00;;;;;;5047851;28;20534;-58
2023/01/01 02:07:33;;;;;;;4.63;3.80;;;18.20;1.00;;;;;;5045205;28;20882;-59
2023/01/01 02:10:00;;;;;;;5.23;3.60;;;18.20;1.00;;;;;;5041524;28;20462;-59
2023/01/01 02:12:26;;;;;;;4.50;3.37;;;18.20;1.00;;;;;;5042999;28;20474;-60
2023/01/01 02:14:53;;;;;;;3.73;2.90;;;18.30;1.00;;;;;;5049287;28;20422;-59
2023/01/01 02:17:30;;;;;;;3.23;2.83;;;18.20;1.00;;;;;;5046629;28;20466;-58
2023/01/01 02:20:18;;;;;;;6.40;2.47;;;18.20;1.00;;;;;;5045441;28;20921;-59
2023/01/01 02:23:05;;;;;;;4.00;3.00;;;18.20;1.00;;;;;;5046339;28;20493;-59
2023/01/01 02:25:34;;;;;;;4.70;3.20;;;18.20;1.00;;;;;;5047434;28;20450;-59
2023/01/01 02:28:40;;;;;;;7.30;3.67;;;18.20;1.00;;;;;;5047113;28;20475;-59
2023/01/01 02:31:09;;;;;;;3.97;3.03;;;18.20;1.00;;;;;;5039560;28;20455;-58
2023/01/01 02:33:35;;;;;;;5.00;3.03;;;18.20;1.00;;;;;;5048031;28;20907;-59
2023/01/01 02:36:03;;;;;;;3.83;2.90;;;18.20;1.00;;;;;;5046206;28;20772;-58
2023/01/01 02:38:33;;;;;;;2.43;2.23;;;18.20;1.00;;;;;;5046492;28;20443;-59
2023/01/01 02:41:09;;;;;;;2.53;2.33;;;18.20;1.00;;;;;;5048494;28;20462;-59
2023/01/01 02:43:36;;;;;;;3.10;2.23;;;18.10;1.00;;;;;;5045245;28;20421;-58
2023/01/01 02:46:11;;;;;;;3.57;2.00;;;18.20;1.00;;;;;;5047354;28;20421;-59
2023/01/01 02:48:36;;;;;;;4.63;2.40;;;18.10;1.00;;;;;;5045543;28;20449;-58
2023/01/01 02:51:45;;;;;;;3.50;2.60;;;18.20;1.00;;;;;;5047203;28;20473;-59
2023/01/01 02:54:32;;;;;;;4.60;2.50;;;18.20;1.00;;;;;;5045358;28;20192;-60
2023/01/01 02:57:34;;;;;;;5.93;2.47;;;18.10;1.00;;;;;;5047676;28;21053;-60
2023/01/01 03:00:17;;;;;;;3.03;2.10;;;18.10;1.00;;;;;;5045852;28;20494;-58
2023/01/01 03:03:04;;;;;;;3.80;2.40;;;18.10;1.00;;;;;;5044309;28;20569;-59
2023/01/01 03:09:02;;;;;;;3.40;2.33;;;18.10;1.00;;;;;;5049003;28;20445;-59
2023/01/01 03:11:57;;;;;;;4.20;2.23;;;18.10;1.00;;;;;;5048952;28;20410;-57
2023/01/01 03:14:50;;;;;;;4.63;2.33;;;18.10;1.00;;;;;;5043888;28;20521;-59
2023/01/01 03:17:30;;;;;;;4.60;2.03;;;18.10;1.00;;;;;;5044288;28;20800;-58
2023/01/01 03:20:00;;;;;;;3.70;2.77;;;18.20;1.00;;;;;;5044765;28;20530;-58
2023/01/01 03:22:30;;;;;;;5.87;2.40;;;18.10;1.00;;;;;;5043659;28;20429;-59
2023/01/01 03:25:03;;;;;;;4.10;2.10;;;18.10;1.00;;;;;;5046220;28;20476;-58
2023/01/01 03:27:42;;;;;;;4.83;2.80;;;18.00;1.00;;;;;;5049693;28;20420;-58
2023/01/01 03:30:10;;;;;;;3.50;2.57;;;18.00;1.00;;;;;;5048509;28;20425;-59
2023/01/01 03:33:00;;;;;;;4.27;2.47;;;18.10;1.00;;;;;;5044686;28;20485;-59
2023/01/01 03:35:50;;;;;;;2.87;1.93;;;18.00;1.00;;;;;;5044023;28;20433;-60
2023/01/01 03:38:21;;;;;;;2.97;2.30;;;18.00;1.00;;;;;;5045610;28;20944;-58
2023/01/01 03:40:50;;;;;;;2.50;1.93;;;17.90;1.00;;;;;;5045806;28;20428;-59
2023/01/01 03:43:23;;;;;;;3.50;2.37;;;17.90;1.00;;;;;;5045614;28;20937;-60
2023/01/01 03:45:51;;;;;;;2.80;2.00;;;18.00;1.00;;;;;;5046558;28;20948;-59
2023/01/01 03:48:17;;;;;;;4.40;2.30;;;17.90;1.00;;;;;;5042781;28;20477;-59
2023/01/01 03:50:57;;;;;;;6.00;2.30;;;17.80;1.00;;;;;;5046068;28;20417;-59
2023/01/01 03:53:37;;;;;;;3.50;2.20;;;17.80;1.00;;;;;;5040501;28;20752;-59
2023/01/01 03:56:20;;;;;;;5.50;2.17;;;17.80;1.00;;;;;;5045082;28;20474;-58
2023/01/01 03:59:06;;;;;;;4.87;2.00;;;17.80;1.00;;;;;;5042334;28;20416;-58
2023/01/01 04:01:36;;;;;;;4.70;2.40;;;17.80;1.00;;;;;;5043906;28;20433;-59
2023/01/01 04:04:04;;;;;;;4.70;2.53;;;17.80;1.00;;;;;;5043324;28;20486;-60
2023/01/01 04:06:32;;;;;;;5.00;2.80;;;17.70;1.00;;;;;;5044678;28;20445;-60
2023/01/01 04:08:59;;;;;;;4.17;2.20;;;17.80;1.00;;;;;;5045088;28;20536;-58
2023/01/01 04:14:24;;;;;;;4.13;2.23;;;17.70;1.00;;;;;;5041747;28;20499;-60
2023/01/01 04:16:50;;;;;;;4.73;2.53;;;17.70;1.00;;;;;;5045038;28;20454;-59
2023/01/01 04:19:15;;;;;;;3.83;2.13;;;17.70;1.00;;;;;;5042813;28;20531;-58
2023/01/01 04:21:41;;;;;;;4.40;2.37;;;17.60;1.00;;;;;;5043790;28;20672;-59
2023/01/01 04:24:06;;;;;;;4.07;2.23;;;17.70;1.00;;;;;;5045418;28;20192;-60
2023/01/01 04:26:32;;;;;;;6.63;2.33;;;17.70;1.00;;;;;;5046453;28;20189;-57
2023/01/01 04:28:58;;;;;;;6.23;2.67;;;17.70;1.00;;;;;;5045961;28;20192;-59
2023/01/01 04:31:23;;;;;;;4.13;2.10;;;17.70;1.00;;;;;;5045852;28;20192;-60
2023/01/01 04:33:52;;;;;;;2.80;1.80;;;17.70;1.00;;;;;;5043370;28;20193;-60
2023/01/01 04:36:18;;;;;;;3.10;2.13;;;17.60;1.00;;;;;;5049596;28;20173;-59
2023/01/01 04:38:44;;;;;;;4.10;2.20;;;18.40;1.00;;;;;;5046933;28;20482;-59
2023/01/01 04:41:09;;;;;;;6.63;2.70;;;17.60;1.00;;;;;;5049919;28;20195;-60
2023/01/01 04:43:36;;;;;;;4.67;2.27;;;17.60;1.00;;;;;;5049330;28;20193;-60
2023/01/01 04:46:03;;;;;;;4.13;2.80;;;17.60;1.00;;;;;;5046592;28;20661;-58
2023/01/01 04:48:30;;;;;;;4.50;2.53;;;17.70;1.00;;;;;;5047565;28;20494;-59
2023/01/01 04:51:01;;;;;;;4.70;2.20;;;17.70;1.00;;;;;;5049324;28;20473;-59
2023/01/01 04:53:29;;;;;;;5.23;2.60;;;17.80;1.00;;;;;;5047458;28;20463;-59
2023/01/01 04:55:56;;;;;;;4.10;2.33;;;17.80;1.00;;;;;;5048509;28;20436;-59
2023/01/01 04:58:21;;;;;;;4.13;1.80;;;17.90;1.00;;;;;;5047342;28;20436;-58
2023/01/01 05:00:49;;;;;;;7.70;2.60;;;18.00;1.00;;;;;;5048812;28;20439;-59
2023/01/01 05:03:15;;;;;;;3.03;2.10;;;17.90;1.00;;;;;;5047730;28;20186;-59
2023/01/01 05:05:40;;;;;;;4.70;2.50;;;18.00;1.00;;;;;;5048971;28;20425;-59
2023/01/01 05:08:06;;;;;;;7.93;2.37;;;18.10;1.00;;;;;;5048687;28;20483;-60
2023/01/01 05:10:31;;;;;;;7.87;2.50;;;18.00;1.00;;;;;;5046183;28;20227;-59
2023/01/01 05:12:57;;;;;;;6.33;2.50;;;18.00;1.00;;;;;;5047625;28;20216;-59
2023/01/01 05:15:23;;;;;;;3.00;2.70;;;17.90;1.00;;;;;;5049511;28;20184;-59
2023/01/01 05:17:48;;;;;;;6.03;2.53;;;17.90;1.00;;;;;;5049277;28;20188;-59
2023/01/01 05:20:14;;;;;;;5.27;2.20;;;18.00;1.00;;;;;;5046609;28;20185;-58
2023/01/01 05:22:39;;;;;;;8.20;2.67;;;18.00;1.00;;;;;;5050759;28;20207;-59
2023/01/01 05:25:05;;;;;;;5.60;2.17;;;18.00;1.00;;;;;;5047798;28;20634;-58
2023/01/01 05:27:31;;;;;;;5.50;2.40;;;18.00;1.00;;;;;;5048907;28;20181;-58
2023/01/01 05:29:57;;;;;;;5.13;2.10;;;18.00;1.00;;;;;;5049739;28;20454;-59
2023/01/01 05:32:23;;;;;;;10.03;2.70;;;18.00;1.00;;;;;;5046083;28;20207;-58
2023/01/01 05:34:49;;;;;;;4.93;2.37;;;18.00;1.00;;;;;;5049786;28;20422;-59
2023/01/01 05:37:14;;;;;;;7.70;2.80;;;18.00;1.00;;;;;;5046308;28;20188;-59
2023/01/01 05:39:40;;;;;;;5.80;2.00;;;18.00;1.00;;;;;;5047885;28;20645;-60
2023/01/01 05:42:05;;;;;;;3.60;2.10;;;18.00;1.00;;;;;;5047056;28;20184;-60
2023/01/01 05:44:31;;;;;;;6.27;2.87;;;18.00;1.00;;;;;;5046120;28;20542;-58
2023/01/01 05:46:56;;;;;;;4.80;2.40;;;18.00;1.00;;;;;;5047377;28;20323;-59
2023/01/01 05:49:22;;;;;;;5.80;2.50;;;18.00;1.00;;;;;;5047514;28;20232;-59
2023/01/01 05:51:48;;;;;;;3.80;2.40;;;18.00;1.00;;;;;;5048330;28;20208;-60
2023/01/01 05:54:13;;;;;;;4.60;2.43;;;18.00;1.00;;;;;;5046699;28;20192;-59
2023/01/01 05:56:39;;;;;;;5.47;2.10;;;18.00;1.00;;;;;;5048972;28;20193;-59
2023/01/01 05:59:05;;;;;;;4.63;2.73;;;18.00;1.00;;;;;;5048018;28;20193;-59
2023/01/01 06:01:30;;;;;;;3.77;2.30;;;18.00;1.00;;;;;;5046197;28;20526;-58
2023/01/01 06:03:58;;;;;;;3.27;2.17;;;17.90;1.00;;;;;;5046731;28;20250;-58
2023/01/01 06:06:29;;;;;;;6.20;2.30;;;17.90;1.00;;;;;;5047066;28;20242;-57
2023/01/01 06:09:00;;;;;;;3.43;2.50;;;17.90;1.00;;;;;;5045689;28;20448;-58
2023/01/01 06:11:26;;;;;;;4.63;2.00;;;17.90;1.00;;;;;;5047020;28;20496;-59
2023/01/01 06:13:53;;;;;;;2.87;2.63;;;17.90;1.00;;;;;;5046736;28;20447;-58
2023/01/01 06:16:19;;;;;;;6.40;2.00;;;17.90;1.00;;;;;;5046279;28;20578;-59
2023/01/01 06:18:45;;;;;;;4.40;2.13;;;17.90;1.00;;;;;;5057455;28;20516;-59
2023/01/01 06:21:14;;;;;;;2.80;2.40;;;17.90;1.00;;;;;;5042252;28;21106;-59
2023/01/01 06:23:40;;;;;;;2.90;2.30;;;17.90;1.00;;;;;;5046857;28;20191;-59
2023/01/01 06:26:10;;;;;;;4.03;2.20;;;17.90;1.00;;;;;;5045677;28;20442;-58
2023/01/01 06:28:36;;;;;;;3.40;2.40;;;17.90;1.00;;;;;;5047120;28;20184;-59
2023/01/01 06:31:03;;;;;;;3.27;2.30;;;17.90;1.00;;;;;;5047803;28;20459;-59
2023/01/01 06:33:30;;;;;;;5.47;2.63;;;17.90;1.00;;;;;;5043704;28;20212;-58
2023/01/01 06:35:55;;;;;;;5.40;2.87;;;17.90;1.00;;;;;;5045751;28;20474;-59
2023/01/01 06:38:21;;;;;;;2.60;2.40;;;17.80;1.00;;;;;;5047125;28;20764;-60
2023/01/01 06:40:57;;;;;;;3.73;2.70;;;17.80;1.00;;;;;;5045286;28;20192;-59
2023/01/01 06:43:23;;;;;;;5.70;3.03;;;17.80;1.00;;;;;;5043035;28;20542;-60
2023/01/01 06:45:57;;;;;;;3.00;2.67;;;17.50;1.00;;;;;;5046335;28;20462;-60
2023/01/01 06:48:23;;;;;;;4.00;3.00;;;17.90;1.00;;;;;;5047020;28;20250;-58
2023/01/01 06:50:48;;;;;;;10.87;4.27;;;17.80;1.00;;;;;;5045228;28;20870;-59
2023/01/01 06:53:14;;;;;;;4.63;3.00;;;17.80;1.00;;;;;;5045020;28;20244;-59
2023/01/01 06:55:46;;;;;;;4.53;3.20;;;17.80;1.00;;;;;;5047152;28;20194;-59
2023/01/01 06:58:13;;;;;;;4.70;3.43;;;17.70;1.00;;;;;;5044597;28;20233;-59
2023/01/01 07:00:38;;;;;;;3.17;2.87;;;17.80;1.00;;;;;;5047568;28;20457;-59
2023/01/01 07:03:04;;;;;;;4.53;3.23;;;17.70;1.00;;;;;;5045800;28;20545;-60
2023/01/01 07:05:29;;;;;;;4.73;3.20;;;17.70;1.00;;;;;;5054541;28;20275;-60
2023/01/01 07:07:55;;;;;;;5.67;3.30;;;17.70;1.00;;;;;;5044375;28;20203;-59
2023/01/01 07:10:20;;;;;;;6.30;3.40;;;17.70;1.00;;;;;;5046923;28;20195;-58
2023/01/01 07:12:46;;;;;;;5.00;3.30;;;17.70;1.00;;;;;;5051059;28;20224;-59
2023/01/01 07:15:12;;;;;;;5.27;3.50;;;17.60;1.00;;;;;;5045566;28;20228;-59
2023/01/01 07:17:37;;;;;;;3.73;3.00;;;17.70;1.00;;;;;;5044272;28;20538;-58
2023/01/01 07:20:03;;;;;;;6.80;4.50;;;17.60;1.00;;;;;;5044517;28;20180;-59
2023/01/01 07:22:29;;;;;;;5.93;3.40;;;17.60;1.00;;;;;;5043609;28;20955;-59
2023/01/01 07:24:54;;;;;;;5.77;3.30;;;17.60;1.00;;;;;;5047055;28;20511;-59
2023/01/01 07:27:20;;;;;;;6.57;3.90;;;17.50;1.00;;;;;;5042874;28;20181;-58
2023/01/01 07:29:45;;;;;;;7.17;3.73;;;17.60;1.00;;;;;;5041589;28;20243;-58
2023/01/01 07:32:12;;;;;;;5.97;3.50;;;17.60;1.00;;;;;;5046315;28;20204;-58
2023/01/01 07:34:38;;;;;;;5.63;3.77;;;17.60;1.00;;;;;;5044513;28;20219;-59
2023/01/01 07:37:04;;;;;;;7.50;3.70;;;17.60;1.00;;;;;;5045358;28;20421;-58
2023/01/01 07:39:29;;;;;;;6.20;3.60;;;17.70;1.00;;;;;;5061079;28;20234;-59
2023/01/01 07:41:55;;;;;;;4.30;3.23;;;17.60;1.00;;;;;;5044555;28;20614;-59
2023/01/01 07:44:20;;;;;;;5.70;3.90;;;17.60;1.00;;;;;;5043479;28;20192;-59
2023/01/01 07:46:46;;;;;;;6.53;4.00;;;17.60;1.00;;;;;;5046423;28;20195;-58
2023/01/01 07:49:12;;;;;;;4.63;4.17;;;17.60;1.00;;;;;;5042651;28;20230;-59
2023/01/01 07:51:37;;;;;;;4.00;3.60;;;17.60;1.00;;;;;;5044442;28;20189;-59
2023/01/01 07:54:03;;;;;;;6.07;4.37;;;17.60;1.00;;;;;;5043880;28;20192;-59
2023/01/01 07:56:28;;;;;;;5.50;3.50;;;17.60;1.00;;;;;;5045343;28;20287;-58
2023/01/01 07:58:54;;;;;;;4.93;3.73;;;17.60;1.00;;;;;;5045944;28;20271;-58
2023/01/01 08:01:20;;;;;;;5.10;4.13;;;17.70;1.00;;;;;;5043978;28;20188;-60
2023/01/01 08:03:50;;;;;;;4.40;4.00;;;17.70;1.00;;;;;;5043293;28;20192;-59
2023/01/01 08:06:16;;;;;;;5.23;3.50;;;17.70;1.00;;;;;;5043788;28;20185;-58
2023/01/01 08:08:41;;;;;;;4.13;3.60;;;17.70;1.00;;;;;;5046016;28;20422;-58
2023/01/01 08:11:07;;;;;;;4.47;3.73;;;17.70;1.00;;;;;;5048330;28;20612;-59
2023/01/01 08:13:33;;;;;;;5.90;3.60;;;17.60;1.00;;;;;;5048461;28;20235;-60
2023/01/01 08:15:59;;;;;;;4.70;4.07;;;17.70;1.00;;;;;;5050156;28;20192;-59
2023/01/01 08:18:25;;;;;;;5.63;3.60;;;17.70;1.00;;;;;;5050584;28;20181;-59
2023/01/01 08:20:50;;;;;;;3.97;3.50;;;17.70;1.00;;;;;;5056733;28;21927;-58
2023/01/01 08:23:16;;;;;;;4.80;3.83;;;17.70;1.00;;;;;;5050292;28;20442;-60
2023/01/01 08:25:41;;;;;;;4.80;3.93;;;17.80;1.00;;;;;;5046012;28;20242;-58
2023/01/01 08:28:08;;;;;;;4.53;3.53;;;17.80;1.00;;;;;;5050186;28;20656;-59
2023/01/01 08:30:33;;;;;;;4.23;3.60;;;17.80;1.00;;;;;;5047988;28;20191;-61
2023/01/01 08:32:59;;;;;;;6.43;4.17;;;17.90;1.00;;;;;;5048005;28;20474;-61
2023/01/01 08:35:24;;;;;;;4.80;3.70;;;17.90;1.00;;;;;;5050819;28;20231;-59
2023/01/01 08:37:50;;;;;;;3.87;3.10;;;17.90;1.00;;;;;;5048893;28;20269;-58
2023/01/01 08:40:16;;;;;;;6.33;3.90;;;18.10;1.00;;;;;;5049084;28;20212;-59
2023/01/01 08:42:41;;;;;;;8.80;3.80;;;18.00;1.00;;;;;;5049870;28;20195;-60
2023/01/01 08:45:07;;;;;;;4.57;3.33;;;18.10;1.00;;;;;;5042823;28;20208;-58
2023/01/01 08:47:33;;;;;;;7.77;3.40;;;18.10;1.00;;;;;;5047587;28;20188;-60
2023/01/01 08:49:59;;;;;;;5.80;4.17;;;18.00;1.00;;;;;;5049499;28;20515;-59
2023/01/01 08:52:24;;;;;;;3.50;3.10;;;18.10;1.00;;;;;;5047817;28;20254;-59
2023/01/01 08:54:50;;;;;;;4.77;3.40;;;18.10;1.00;;;;;;5049415;28;20658;-60
2023/01/01 08:57:15;;;;;;;4.40;3.30;;;18.10;1.00;;;;;;5045434;28;20197;-58
2023/01/01 08:59:41;;;;;;;5.40;2.83;;;18.20;1.00;;;;;;5049848;28;20541;-61
2023/01/01 09:02:07;;;;;;;4.57;3.27;;;18.30;1.00;;;;;;5045711;28;20862;-60
2023/01/01 09:04:32;;;;;;;4.20;3.10;;;18.40;1.00;;;;;;5043848;28;20185;-60
2023/01/01 09:06:58;;;;;;;4.83;3.37;;;18.40;1.00;;;;;;5045743;28;20188;-58
2023/01/01 09:09:24;;;;;;;3.37;2.70;;;18.40;1.00;;;;;;5046079;28;20326;-59
2023/01/01 09:11:54;;;;;;;4.13;3.03;;;18.40;1.00;;;;;;5048773;28;20212;-59
2023/01/01 09:14:20;;;;;;;5.27;3.43;;;18.40;1.00;;;;;;5044785;28;20234;-59
2023/01/01 09:16:46;;;;;;;4.73;2.93;;;18.40;1.00;;;;;;5048811;28;20438;-59
2023/01/01 09:19:12;;;;;;;4.10;2.87;;;18.30;1.00;;;;;;5044681;28;20461;-59
2023/01/01 09:21:37;;;;;;;7.37;3.43;;;18.30;1.00;;;;;;5048809;28;20208;-59
2023/01/01 09:24:03;;;;;;;4.10;2.90;;;18.20;1.00;;;;;;5046063;28;20204;-59
2023/01/01 09:26:29;;;;;;;3.87;2.77;;;18.30;1.00;;;;;;5047989;28;20271;-58
2023/01/01 09:28:54;;;;;;;3.40;2.80;;;18.40;1.00;;;;;;5047911;28;20188;-60
2023/01/01 09:31:20;;;;;;;4.17;3.07;;;18.60;1.00;;;;;;5048853;28;20199;-59
2023/01/01 09:33:46;;;;;;;5.43;2.53;;;18.40;1.00;;;;;;5048412;28;20566;-58
2023/01/01 09:36:17;;;;;;;6.00;2.80;;;18.50;1.00;;;;;;5048151;28;20634;-58
2023/01/01 09:38:48;;;;;;;3.80;2.53;;;18.60;1.00;;;;;;5047537;28;20763;-58
2023/01/01 09:41:26;;;;;;;5.20;3.03;;;18.60;1.00;;;;;;5049942;28;20478;-58
2023/01/01 09:43:55;;;;;;;6.50;2.50;;;18.60;1.00;;;;;;5050528;28;20500;-58
2023/01/01 09:46:23;;;;;;;4.50;2.93;;;18.80;1.00;;;;;;5050225;28;20439;-59
2023/01/01 09:49:00;;;;;;;5.60;2.50;;;18.70;1.00;;;;;;5046184;28;20471;-58
2023/01/01 09:51:31;;;;;;;4.57;2.30;;;18.80;1.00;;;;;;5046080;28;20443;-58
2023/01/01 09:54:32;;;;;;;4.53;2.67;;;18.90;1.00;;;;;;5047237;28;20471;-58
2023/01/01 09:57:01;;;;;;;4.60;2.40;;;18.90;1.00;;;;;;5046577;28;22289;-58
2023/01/01 09:59:27;;;;;;;3.10;2.60;;;18.90;1.00;;;;;;5050025;28;20468;-57
2023/01/01 10:02:26;;;;;;;3.63;2.43;;;18.90;1.00;;;;;;5049949;28;20470;-58
2023/01/01 10:05:05;;;;;;;6.30;3.10;;;19.00;1.00;;;;;;5043273;28;20454;-58
2023/01/01 10:07:55;;;;;;;4.77;2.60;;;19.00;1.00;;;;;;5051675;28;20504;-58
2023/01/01 10:10:53;;;;;;;3.70;2.73;;;19.10;1.00;;;;;;5049279;28;20421;-57
2023/01/01 10:13:24;;;;;;;4.33;3.10;;;19.20;1.00;;;;;;5048368;28;20510;-58
2023/01/01 10:16:02;;;;;;;5.67;2.40;;;19.30;1.00;;;;;;5047760;28;20418;-58
2023/01/01 10:18:32;;;;;;;3.67;2.67;;;19.20;1.00;;;;;;5043532;28;20974;-58
2023/01/01 10:21:15;;;;;;;6.67;3.60;;;19.20;1.00;;;;;;5049622;28;20501;-58
2023/01/01 10:23:58;;;;;;;5.37;2.80;;;19.30;1.00;;;;;;5048248;28;20438;-59
2023/01/01 10:26:28;;;;;;;4.43;2.57;;;19.30;1.00;;;;;;5048797;28;20453;-58
2023/01/01 10:29:02;;;;;;;4.07;3.13;;;19.30;1.00;;;;;;5048671;28;20424;-60
2023/01/01 10:31:39;;;;;;;4.53;2.70;;;19.30;1.00;;;;;;5045890;28;20435;-56
2023/01/01 10:34:27;;;;;;;4.73;2.20;;;19.30;1.00;;;;;;5053133;28;20817;-58
2023/01/01 10:36:55;;;;;;;4.27;2.60;;;19.10;1.00;;;;;;5048750;28;20446;-58
2023/01/01 10:39:21;;;;;;;4.27;2.50;;;19.00;1.00;;;;;;5046295;28;20960;-58
2023/01/01 10:41:48;;;;;;;3.20;2.43;;;19.10;1.00;;;;;;5048251;28;20443;-58
2023/01/01 10:44:29;;;;;;;7.30;3.63;;;19.20;1.00;;;;;;5044954;28;20644;-57
2023/01/01 10:47:01;;;;;;;5.10;2.50;;;19.20;1.00;;;;;;5048509;28;20462;-58
2023/01/01 10:49:26;;;;;;;9.33;2.87;;;19.20;1.00;;;;;;5042384;28;20951;-58
2023/01/01 10:51:53;;;;;;;5.87;2.47;;;19.30;1.00;;;;;;5048143;28;20503;-59
2023/01/01 10:54:33;;;;;;;4.50;2.70;;;19.50;1.00;;;;;;5046148;28;20185;-58
2023/01/01 10:57:17;;;;;;;4.40;2.37;;;19.50;1.00;;;;;;5049420;28;20929;-59
2023/01/01 10:59:43;;;;;;;6.70;2.67;;;19.60;1.00;;;;;;5049139;28;20410;-58
2023/01/01 11:02:15;;;;;;;6.67;2.90;;;19.70;1.00;;;;;;5048197;28;20496;-58
2023/01/01 11:04:40;;;;;;;8.67;2.73;;;19.80;1.00;;;;;;5046824;28;20881;-57
2023/01/01 11:07:06;;;;;;;6.33;2.53;;;19.80;1.00;;;;;;5046776;28;20512;-59
2023/01/01 11:09:37;;;;;;;6.27;2.17;;;19.80;1.00;;;;;;5046660;28;20542;-57
2023/01/01 11:12:06;;;;;;;3.70;2.47;;;19.80;1.00;;;;;;5047979;28;20555;-57
2023/01/01 11:14:40;;;;;;;3.40;2.50;;;19.90;1.00;;;;;;5046335;28;20538;-58
2023/01/01 11:17:08;;;;;;;5.77;2.03;;;20.00;1.00;;;;;;5048463;28;20547;-58
2023/01/01 11:19:36;;;;;;;5.20;3.10;;;20.10;1.00;;;;;;5045036;28;20443;-58
2023/01/01 11:22:04;;;;;;;5.90;2.67;;;19.90;1.00;;;;;;5046391;28;20464;-57
2023/01/01 11:24:32;;;;;;;4.40;2.40;;;19.70;1.00;;;;;;5046437;28;20450;-58
2023/01/01 11:27:19;;;;;;;6.73;2.90;;;19.50;1.00;;;;;;5047107;28;20445;-58
2023/01/01 11:29:45;;;;;;;3.30;2.90;;;19.60;1.00;;;;;;5043905;28;20486;-59
2023/01/01 11:32:20;;;;;;;6.90;2.57;;;19.70;1.00;;;;;;5046157;28;20486;-57
2023/01/01 11:34:55;;;;;;;6.33;3.20;;;19.70;1.00;;;;;;5045901;28;20729;-59
2023/01/01 11:37:34;;;;;;;7.77;3.00;;;19.70;1.00;;;;;;5046175;28;20993;-58
2023/01/01 11:40:01;;;;;;;8.40;3.07;;;19.70;1.00;;;;;;5045786;28;20801;-59
2023/01/01 11:42:30;;;;;;;10.60;3.40;;;19.60;1.00;;;;;;5047981;28;20501;-58
2023/01/01 11:44:58;;;;;;;4.97;2.60;;;19.70;1.00;;;;;;5050191;28;20425;-58
2023/01/01 11:47:29;;;;;;;4.47;2.70;;;19.70;1.00;;;;;;5049944;28;20834;-58
2023/01/01 11:50:10;;;;;;;7.73;2.83;;;19.80;1.00;;;;;;5051814;28;20447;-58
2023/01/01 11:52:39;;;;;;;3.37;2.70;;;19.90;1.00;;;;;;5049964;28;20478;-58
2023/01/01 11:55:28;;;;;;;6.63;2.83;;;19.80;1.00;;;;;;5049475;28;20959;-59
2023/01/01 11:58:05;;;;;;;5.43;2.77;;;19.90;1.00;;;;;;5021025;28;20462;-58
2023/01/01 12:00:34;;;;;;;5.20;2.70;;;19.90;1.00;;;;;;5055709;28;20432;-58
2023/01/01 12:03:21;;;;;;;5.77;2.90;;;20.00;1.00;;;;;;5057190;28;20442;-57
2023/01/01 12:06:25;;;;;;;8.80;2.90;;;20.00;1.00;;;;;;5050041;28;20458;-58
2023/01/01 12:09:14;;;;;;;4.93;2.17;;;19.90;1.00;;;;;;5052137;28;20530;-58
2023/01/01 12:11:59;;;;;;;7.27;3.93;;;20.00;1.00;;;;;;5050784;28;20840;-59
2023/01/01 12:14:35;;;;;;;7.10;3.33;;;19.90;1.00;;;;;;5052192;28;20437;-58
2023/01/01 12:17:06;;;;;;;6.50;3.53;;;19.90;1.00;;;;;;5052188;28;20466;-59
2023/01/01 12:19:45;;;;;;;7.13;2.73;;;20.00;1.00;;;;;;5051777;28;20414;-58
2023/01/01 12:22:16;;;;;;;10.30;3.10;;;20.10;1.00;;;;;;5049343;28;20449;-59
2023/01/01 12:24:43;;;;;;;3.87;2.60;;;20.20;1.00;;;;;;5049532;28;20443;-59
2023/01/01 12:27:20;;;;;;;5.63;2.47;;;20.20;1.00;;;;;;5050837;28;20421;-59
2023/01/01 12:29:46;;;;;;;5.63;2.37;;;20.20;1.00;;;;;;5057678;28;20517;-59
2023/01/01 12:32:33;;;;;;;5.57;3.00;;;20.20;1.00;;;;;;5050047;28;20540;-59
2023/01/01 12:35:08;;;;;;;6.40;2.87;;;20.20;1.00;;;;;;5051206;28;20638;-59
2023/01/01 12:37:37;;;;;;;7.43;3.30;;;20.20;1.00;;;;;;5050727;28;20446;-59
2023/01/01 12:40:21;;;;;;;4.80;2.57;;;20.20;1.00;;;;;;5050872;28;20450;-59
2023/01/01 12:43:01;;;;;;;6.20;2.70;;;20.20;1.00;;;;;;5050839;28;20517;-59
2023/01/01 12:45:52;;;;;;;5.63;2.40;;;20.10;1.00;;;;;;5049581;28;20468;-58
2023/01/01 12:48:34;;;;;;;6.33;2.90;;;20.10;1.00;;;;;;5048774;28;20482;-58
2023/01/01 12:51:28;;;;;;;9.67;3.80;;;20.00;1.00;;;;;;5050633;28;20440;-59
2023/01/01 12:54:15;;;;;;;5.30;3.50;;;20.00;1.00;;;;;;5027969;28;20518;-59
2023/01/01 12:56:41;;;;;;;11.40;4.37;;;20.00;1.00;;;;;;5049609;28;20450;-59
2023/01/01 12:59:35;;;;;;;10.10;4.10;;;20.00;1.00;;;;;;5047800;28;20455;-59
2023/01/01 13:02:09;;;;;;;6.73;3.13;;;20.10;1.00;;;;;;5040913;28;20599;-59
2023/01/01 13:04:35;;;;;;;10.80;3.80;;;20.10;1.00;;;;;;5050611;28;20454;-59
2023/01/01 13:07:04;;;;;;;7.70;2.83;;;20.00;1.00;;;;;;5049609;28;20451;-58
2023/01/01 13:09:38;;;;;;;6.90;3.57;;;19.90;1.00;;;;;;5048991;28;20447;-58
2023/01/01 13:12:19;;;;;;;10.53;2.83;;;19.90;1.00;;;;;;5048950;28;20567;-59
2023/01/01 13:14:48;;;;;;;7.23;3.17;;;19.80;1.00;;;;;;5050124;28;20504;-59
2023/01/01 13:17:50;;;;;;;11.40;3.53;;;19.80;1.00;;;;;;5049472;28;20524;-58
2023/01/01 13:20:23;;;;;;;5.47;3.23;;;19.80;1.00;;;;;;5048462;28;20428;-58
2023/01/01 13:22:49;;;;;;;7.30;3.37;;;19.90;1.00;;;;;;5051934;28;20494;-59